sensor_id;sensor_type;location;lat;lon;timestamp;P1;durP1;ratioP1;P2;durP2;ratioP2
17422;SDS011;8829;47.932;7.810;2023-04-05T00:01:49;2.80;;;2.50;;
17422;SDS011;8829;47.932;7.810;2023-04-05T00:04:17;4.57;;;2.90;;
17422;SDS011;8829;47.932;7.810;2023-04-05T00:06:45;3.23;;;2.73;;
17422;SDS011;8829;47.932;7.810;2023-04-05T00:09:14;3.13;;;2.60;;
17422;SDS011;8829;47.932;7.810;2023-04-05T00:11:44;2.47;;;2.30;;
17422;SDS011;8829;47.932;7.810;2023-04-05T00:14:12;2.70;;;2.50;;
17422;SDS011;8829;47.932;7.810;2023-04-05T00:16:39;2.70;;;2.50;;
17422;SDS011;8829;47.932;7.810;2023-04-05T00:19:06;2.73;;;2.50;;
17422;SDS011;8829;47.932;7.810;2023-04-05T00:21:34;5.50;;;2.47;;
17422;SDS011;8829;47.932;7.810;2023-04-05T00:24:02;2.77;;;2.50;;
17422;SDS011;8829;47.932;7.810;2023-04-05T00:26:29;3.13;;;2.43;;
17422;SDS011;8829;47.932;7.810;2023-04-05T00:28:57;3.17;;;2.87;;
17422;SDS011;8829;47.932;7.810;2023-04-05T00:31:24;2.80;;;2.60;;
17422;SDS011;8829;47.932;7.810;2023-04-05T00:33:50;4.77;;;3.77;;
17422;SDS011;8829;47.932;7.810;2023-04-05T00:36:18;2.43;;;2.33;;
17422;SDS011;8829;47.932;7.810;2023-04-05T00:38:45;4.63;;;3.00;;
17422;SDS011;8829;47.932;7.810;2023-04-05T00:41:13;2.50;;;2.30;;
17422;SDS011;8829;47.932;7.810;2023-04-05T00:43:40;2.67;;;2.33;;
17422;SDS011;8829;47.932;7.810;2023-04-05T00:46:08;4.63;;;2.50;;
17422;SDS011;8829;47.932;7.810;2023-04-05T00:48:35;2.90;;;2.70;;
17422;SDS011;8829;47.932;7.810;2023-04-05T00:51:03;2.70;;;2.50;;
17422;SDS011;8829;47.932;7.810;2023-04-05T00:53:33;3.47;;;2.47;;
17422;SDS011;8829;47.932;7.810;2023-04-05T00:56:01;5.30;;;2.63;;
17422;SDS011;8829;47.932;7.810;2023-04-05T00:58:29;5.53;;;2.87;;
17422;SDS011;8829;47.932;7.810;2023-04-05T01:00:57;3.57;;;2.63;;
17422;SDS011;8829;47.932;7.810;2023-04-05T01:03:31;2.60;;;2.40;;
17422;SDS011;8829;47.932;7.810;2023-04-05T01:06:03;3.93;;;2.60;;
17422;SDS011;8829;47.932;7.810;2023-04-05T01:08:44;4.13;;;3.03;;
17422;SDS011;8829;47.932;7.810;2023-04-05T01:11:19;2.90;;;2.57;;
17422;SDS011;8829;47.932;7.810;2023-04-05T01:13:48;3.80;;;2.57;;
17422;SDS011;8829;47.932;7.810;2023-04-05T01:16:15;2.70;;;2.50;;
17422;SDS011;8829;47.932;7.810;2023-04-05T01:18:43;2.50;;;2.30;;
17422;SDS011;8829;47.932;7.810;2023-04-05T01:21:18;2.90;;;2.30;;
17422;SDS011;8829;47.932;7.810;2023-04-05T01:23:58;2.57;;;2.37;;
17422;SDS011;8829;47.932;7.810;2023-04-05T01:26:45;3.37;;;2.70;;
17422;SDS011;8829;47.932;7.810;2023-04-05T01:29:45;4.30;;;2.67;;
17422;SDS011;8829;47.932;7.810;2023-04-05T01:32:24;2.20;;;2.10;;
17422;SDS011;8829;47.932;7.810;2023-04-05T01:35:04;3.37;;;3.17;;
17422;SDS011;8829;47.932;7.810;2023-04-05T01:37:38;2.87;;;2.40;;
17422;SDS011;8829;47.932;7.810;2023-04-05T01:40:07;2.93;;;2.73;;
17422;SDS011;8829;47.932;7.810;2023-04-05T01:42:34;7.17;;;2.50;;
17422;SDS011;8829;47.932;7.810;2023-04-05T01:45:03;2.20;;;2.10;;
17422;SDS011;8829;47.932;7.810;2023-04-05T01:47:30;2.53;;;2.30;;
17422;SDS011;8829;47.932;7.810;2023-04-05T01:49:57;2.30;;;2.20;;
17422;SDS011;8829;47.932;7.810;2023-04-05T01:52:24;2.60;;;2.40;;
17422;SDS011;8829;47.932;7.810;2023-04-05T01:54:51;3.07;;;2.77;;
17422;SDS011;8829;47.932;7.810;2023-04-05T01:57:17;2.87;;;2.33;;
17422;SDS011;8829;47.932;7.810;2023-04-05T01:59:44;2.57;;;2.37;;
17422;SDS011;8829;47.932;7.810;2023-04-05T02:02:12;2.63;;;2.43;;
17422;SDS011;8829;47.932;7.810;2023-04-05T02:04:39;4.50;;;2.87;;
17422;SDS011;8829;47.932;7.810;2023-04-05T02:07:06;3.60;;;2.57;;
17422;SDS011;8829;47.932;7.810;2023-04-05T02:09:33;2.80;;;2.60;;
17422;SDS011;8829;47.932;7.810;2023-04-05T02:11:59;2.57;;;2.37;;
17422;SDS011;8829;47.932;7.810;2023-04-05T02:14:26;2.63;;;2.50;;
17422;SDS011;8829;47.932;7.810;2023-04-05T02:16:53;2.60;;;2.47;;
17422;SDS011;8829;47.932;7.810;2023-04-05T02:19:22;3.57;;;3.07;;
17422;SDS011;8829;47.932;7.810;2023-04-05T02:21:50;4.83;;;2.87;;
17422;SDS011;8829;47.932;7.810;2023-04-05T02:24:17;2.40;;;2.20;;
17422;SDS011;8829;47.932;7.810;2023-04-05T02:26:44;3.50;;;2.70;;
17422;SDS011;8829;47.932;7.810;2023-04-05T02:29:11;2.67;;;2.47;;
17422;SDS011;8829;47.932;7.810;2023-04-05T02:31:37;2.60;;;2.40;;
17422;SDS011;8829;47.932;7.810;2023-04-05T02:34:04;2.53;;;2.33;;
17422;SDS011;8829;47.932;7.810;2023-04-05T02:36:34;3.50;;;2.87;;
17422;SDS011;8829;47.932;7.810;2023-04-05T02:39:01;2.83;;;2.57;;
17422;SDS011;8829;47.932;7.810;2023-04-05T02:41:28;3.13;;;2.40;;
17422;SDS011;8829;47.932;7.810;2023-04-05T02:43:55;2.80;;;2.60;;
17422;SDS011;8829;47.932;7.810;2023-04-05T02:46:22;3.20;;;2.97;;
17422;SDS011;8829;47.932;7.810;2023-04-05T02:48:49;2.20;;;2.10;;
17422;SDS011;8829;47.932;7.810;2023-04-05T02:51:16;3.83;;;2.60;;
17422;SDS011;8829;47.932;7.810;2023-04-05T02:53:44;2.73;;;2.53;;
17422;SDS011;8829;47.932;7.810;2023-04-05T02:56:12;2.93;;;2.20;;
17422;SDS011;8829;47.932;7.810;2023-04-05T02:58:38;2.83;;;2.50;;
17422;SDS011;8829;47.932;7.810;2023-04-05T03:01:05;2.53;;;2.43;;
17422;SDS011;8829;47.932;7.810;2023-04-05T03:03:32;3.10;;;2.50;;
17422;SDS011;8829;47.932;7.810;2023-04-05T03:06:00;3.43;;;2.87;;
17422;SDS011;8829;47.932;7.810;2023-04-05T03:08:33;2.90;;;2.67;;
17422;SDS011;8829;47.932;7.810;2023-04-05T03:11:04;2.67;;;2.50;;
17422;SDS011;8829;47.932;7.810;2023-04-05T03:13:31;3.40;;;2.67;;
17422;SDS011;8829;47.932;7.810;2023-04-05T03:15:59;4.07;;;2.80;;
17422;SDS011;8829;47.932;7.810;2023-04-05T03:18:25;2.43;;;2.23;;
17422;SDS011;8829;47.932;7.810;2023-04-05T03:20:53;2.80;;;2.20;;
17422;SDS011;8829;47.932;7.810;2023-04-05T03:23:21;2.63;;;2.43;;
17422;SDS011;8829;47.932;7.810;2023-04-05T03:25:52;2.43;;;2.23;;
17422;SDS011;8829;47.932;7.810;2023-04-05T03:28:21;4.53;;;3.27;;
17422;SDS011;8829;47.932;7.810;2023-04-05T03:30:48;4.57;;;2.80;;
17422;SDS011;8829;47.932;7.810;2023-04-05T03:33:15;3.90;;;2.80;;
17422;SDS011;8829;47.932;7.810;2023-04-05T03:35:42;3.63;;;2.50;;
17422;SDS011;8829;47.932;7.810;2023-04-05T03:38:10;3.90;;;2.57;;
17422;SDS011;8829;47.932;7.810;2023-04-05T03:40:37;2.60;;;2.40;;
17422;SDS011;8829;47.932;7.810;2023-04-05T03:43:04;3.00;;;2.80;;
17422;SDS011;8829;47.932;7.810;2023-04-05T03:45:32;3.60;;;2.93;;
17422;SDS011;8829;47.932;7.810;2023-04-05T03:47:59;6.90;;;4.43;;
17422;SDS011;8829;47.932;7.810;2023-04-05T03:50:27;3.70;;;2.93;;
17422;SDS011;8829;47.932;7.810;2023-04-05T03:52:53;3.03;;;2.50;;
17422;SDS011;8829;47.932;7.810;2023-04-05T03:55:20;2.93;;;2.73;;
17422;SDS011;8829;47.932;7.810;2023-04-05T03:57:47;2.70;;;2.50;;
17422;SDS011;8829;47.932;7.810;2023-04-05T04:00:14;2.60;;;2.40;;
17422;SDS011;8829;47.932;7.810;2023-04-05T04:02:43;2.60;;;2.40;;
17422;SDS011;8829;47.932;7.810;2023-04-05T04:05:11;2.57;;;2.40;;
17422;SDS011;8829;47.932;7.810;2023-04-05T04:07:38;3.60;;;3.13;;
17422;SDS011;8829;47.932;7.810;2023-04-05T04:10:06;2.80;;;2.60;;
17422;SDS011;8829;47.932;7.810;2023-04-05T04:12:34;2.90;;;2.70;;
17422;SDS011;8829;47.932;7.810;2023-04-05T04:15:01;3.23;;;2.77;;
17422;SDS011;8829;47.932;7.810;2023-04-05T04:17:29;2.83;;;2.63;;
17422;SDS011;8829;47.932;7.810;2023-04-05T04:19:58;7.23;;;2.90;;
17422;SDS011;8829;47.932;7.810;2023-04-05T04:22:25;3.00;;;2.60;;
17422;SDS011;8829;47.932;7.810;2023-04-05T04:27:32;2.67;;;2.47;;
17422;SDS011;8829;47.932;7.810;2023-04-05T04:30:00;3.70;;;2.90;;
17422;SDS011;8829;47.932;7.810;2023-04-05T04:32:28;3.27;;;3.03;;
17422;SDS011;8829;47.932;7.810;2023-04-05T04:35:10;2.47;;;2.37;;
17422;SDS011;8829;47.932;7.810;2023-04-05T04:37:38;2.97;;;2.70;;
17422;SDS011;8829;47.932;7.810;2023-04-05T04:40:11;3.63;;;2.93;;
17422;SDS011;8829;47.932;7.810;2023-04-05T04:42:41;4.63;;;2.50;;
17422;SDS011;8829;47.932;7.810;2023-04-05T04:45:10;4.43;;;2.60;;
17422;SDS011;8829;47.932;7.810;2023-04-05T04:47:40;2.80;;;2.60;;
17422;SDS011;8829;47.932;7.810;2023-04-05T04:50:07;3.30;;;2.67;;
17422;SDS011;8829;47.932;7.810;2023-04-05T04:52:36;3.03;;;2.70;;
17422;SDS011;8829;47.932;7.810;2023-04-05T04:55:04;2.90;;;2.70;;
17422;SDS011;8829;47.932;7.810;2023-04-05T04:57:31;5.03;;;3.20;;
17422;SDS011;8829;47.932;7.810;2023-04-05T04:59:58;3.10;;;2.80;;
17422;SDS011;8829;47.932;7.810;2023-04-05T05:02:24;3.63;;;3.00;;
17422;SDS011;8829;47.932;7.810;2023-04-05T05:04:52;3.77;;;2.80;;
17422;SDS011;8829;47.932;7.810;2023-04-05T05:07:18;3.53;;;2.60;;
17422;SDS011;8829;47.932;7.810;2023-04-05T05:09:47;3.60;;;2.80;;
17422;SDS011;8829;47.932;7.810;2023-04-05T05:12:18;2.67;;;2.47;;
17422;SDS011;8829;47.932;7.810;2023-04-05T05:14:46;2.63;;;2.43;;
17422;SDS011;8829;47.932;7.810;2023-04-05T05:17:13;5.80;;;2.97;;
17422;SDS011;8829;47.932;7.810;2023-04-05T05:19:39;4.00;;;3.60;;
17422;SDS011;8829;47.932;7.810;2023-04-05T05:22:06;3.17;;;2.97;;
17422;SDS011;8829;47.932;7.810;2023-04-05T05:24:33;3.97;;;2.97;;
17422;SDS011;8829;47.932;7.810;2023-04-05T05:27:01;3.10;;;2.87;;
17422;SDS011;8829;47.932;7.810;2023-04-05T05:29:28;3.00;;;2.80;;
17422;SDS011;8829;47.932;7.810;2023-04-05T05:31:55;3.93;;;3.23;;
17422;SDS011;8829;47.932;7.810;2023-04-05T05:34:22;6.70;;;2.80;;
17422;SDS011;8829;47.932;7.810;2023-04-05T05:36:49;2.90;;;2.70;;
17422;SDS011;8829;47.932;7.810;2023-04-05T05:39:17;3.40;;;3.10;;
17422;SDS011;8829;47.932;7.810;2023-04-05T05:41:44;3.97;;;3.57;;
17422;SDS011;8829;47.932;7.810;2023-04-05T05:44:12;6.33;;;2.90;;
17422;SDS011;8829;47.932;7.810;2023-04-05T05:46:39;3.93;;;2.73;;
17422;SDS011;8829;47.932;7.810;2023-04-05T05:49:06;2.87;;;2.67;;
17422;SDS011;8829;47.932;7.810;2023-04-05T05:51:33;3.80;;;3.10;;
17422;SDS011;8829;47.932;7.810;2023-04-05T05:53:59;4.80;;;2.90;;
17422;SDS011;8829;47.932;7.810;2023-04-05T05:56:26;3.50;;;3.30;;
17422;SDS011;8829;47.932;7.810;2023-04-05T05:58:53;3.67;;;3.33;;
17422;SDS011;8829;47.932;7.810;2023-04-05T06:01:21;3.17;;;2.97;;
17422;SDS011;8829;47.932;7.810;2023-04-05T06:03:52;2.60;;;2.50;;
17422;SDS011;8829;47.932;7.810;2023-04-05T06:06:19;3.30;;;3.10;;
17422;SDS011;8829;47.932;7.810;2023-04-05T06:08:46;3.40;;;3.10;;
17422;SDS011;8829;47.932;7.810;2023-04-05T06:11:17;3.23;;;2.93;;
17422;SDS011;8829;47.932;7.810;2023-04-05T06:13:43;5.63;;;3.57;;
17422;SDS011;8829;47.932;7.810;2023-04-05T06:16:10;2.73;;;2.53;;
17422;SDS011;8829;47.932;7.810;2023-04-05T06:18:38;3.43;;;2.73;;
17422;SDS011;8829;47.932;7.810;2023-04-05T06:21:06;2.53;;;2.33;;
17422;SDS011;8829;47.932;7.810;2023-04-05T06:23:33;2.63;;;2.40;;
17422;SDS011;8829;47.932;7.810;2023-04-05T06:25:59;1.93;;;1.80;;
17422;SDS011;8829;47.932;7.810;2023-04-05T06:28:26;2.37;;;2.17;;
17422;SDS011;8829;47.932;7.810;2023-04-05T06:30:54;2.40;;;2.07;;
17422;SDS011;8829;47.932;7.810;2023-04-05T06:33:21;3.80;;;2.50;;
17422;SDS011;8829;47.932;7.810;2023-04-05T06:35:49;2.60;;;2.40;;
17422;SDS011;8829;47.932;7.810;2023-04-05T06:38:15;3.07;;;2.67;;
17422;SDS011;8829;47.932;7.810;2023-04-05T06:40:42;4.77;;;2.47;;
17422;SDS011;8829;47.932;7.810;2023-04-05T06:43:09;2.50;;;2.30;;
17422;SDS011;8829;47.932;7.810;2023-04-05T06:45:36;2.33;;;1.90;;
17422;SDS011;8829;47.932;7.810;2023-04-05T06:48:03;4.13;;;2.53;;
17422;SDS011;8829;47.932;7.810;2023-04-05T06:50:30;3.80;;;2.43;;
17422;SDS011;8829;47.932;7.810;2023-04-05T06:52:58;2.67;;;2.03;;
17422;SDS011;8829;47.932;7.810;2023-04-05T06:55:24;2.33;;;2.10;;
17422;SDS011;8829;47.932;7.810;2023-04-05T06:57:51;2.93;;;2.63;;
17422;SDS011;8829;47.932;7.810;2023-04-05T07:00:18;4.27;;;2.27;;
17422;SDS011;8829;47.932;7.810;2023-04-05T07:02:45;2.13;;;1.97;;
17422;SDS011;8829;47.932;7.810;2023-04-05T07:05:12;2.50;;;2.30;;
17422;SDS011;8829;47.932;7.810;2023-04-05T07:07:39;2.37;;;2.17;;
17422;SDS011;8829;47.932;7.810;2023-04-05T07:10:08;2.47;;;2.27;;
17422;SDS011;8829;47.932;7.810;2023-04-05T07:12:36;2.33;;;2.07;;
17422;SDS011;8829;47.932;7.810;2023-04-05T07:15:03;2.23;;;2.03;;
17422;SDS011;8829;47.932;7.810;2023-04-05T07:17:31;6.73;;;2.13;;
17422;SDS011;8829;47.932;7.810;2023-04-05T07:19:57;2.13;;;2.00;;
17422;SDS011;8829;47.932;7.810;2023-04-05T07:22:24;2.53;;;2.20;;
17422;SDS011;8829;47.932;7.810;2023-04-05T07:24:51;3.73;;;2.47;;
17422;SDS011;8829;47.932;7.810;2023-04-05T07:27:20;3.70;;;2.57;;
17422;SDS011;8829;47.932;7.810;2023-04-05T07:29:47;3.73;;;2.90;;
17422;SDS011;8829;47.932;7.810;2023-04-05T07:32:14;3.20;;;2.90;;
17422;SDS011;8829;47.932;7.810;2023-04-05T07:34:41;4.70;;;3.33;;
17422;SDS011;8829;47.932;7.810;2023-04-05T07:37:07;3.37;;;3.07;;
17422;SDS011;8829;47.932;7.810;2023-04-05T07:39:34;5.17;;;3.20;;
17422;SDS011;8829;47.932;7.810;2023-04-05T07:42:01;3.63;;;2.80;;
17422;SDS011;8829;47.932;7.810;2023-04-05T07:44:29;4.33;;;2.93;;
17422;SDS011;8829;47.932;7.810;2023-04-05T07:46:55;3.73;;;2.90;;
17422;SDS011;8829;47.932;7.810;2023-04-05T07:49:25;6.90;;;3.00;;
17422;SDS011;8829;47.932;7.810;2023-04-05T07:51:53;4.30;;;3.90;;
17422;SDS011;8829;47.932;7.810;2023-04-05T07:54:20;3.87;;;3.50;;
17422;SDS011;8829;47.932;7.810;2023-04-05T07:56:47;4.20;;;3.53;;
17422;SDS011;8829;47.932;7.810;2023-04-05T07:59:14;4.60;;;3.90;;
17422;SDS011;8829;47.932;7.810;2023-04-05T08:01:42;3.63;;;3.13;;
17422;SDS011;8829;47.932;7.810;2023-04-05T08:04:09;4.37;;;3.30;;
17422;SDS011;8829;47.932;7.810;2023-04-05T08:06:36;3.63;;;3.10;;
17422;SDS011;8829;47.932;7.810;2023-04-05T08:09:02;12.70;;;6.93;;
17422;SDS011;8829;47.932;7.810;2023-04-05T08:11:29;3.53;;;3.10;;
17422;SDS011;8829;47.932;7.810;2023-04-05T08:13:57;4.03;;;3.50;;
17422;SDS011;8829;47.932;7.810;2023-04-05T08:16:23;4.93;;;4.10;;
17422;SDS011;8829;47.932;7.810;2023-04-05T08:18:51;3.53;;;3.23;;
17422;SDS011;8829;47.932;7.810;2023-04-05T08:21:18;5.10;;;3.47;;
17422;SDS011;8829;47.932;7.810;2023-04-05T08:23:45;3.53;;;3.20;;
17422;SDS011;8829;47.932;7.810;2023-04-05T08:26:13;6.13;;;3.80;;
17422;SDS011;8829;47.932;7.810;2023-04-05T08:28:39;3.60;;;3.30;;
17422;SDS011;8829;47.932;7.810;2023-04-05T08:31:06;3.80;;;3.50;;
17422;SDS011;8829;47.932;7.810;2023-04-05T08:33:33;5.77;;;3.70;;
17422;SDS011;8829;47.932;7.810;2023-04-05T08:36:04;5.00;;;4.00;;
17422;SDS011;8829;47.932;7.810;2023-04-05T08:38:31;5.17;;;3.90;;
17422;SDS011;8829;47.932;7.810;2023-04-05T08:41:04;3.60;;;3.23;;
17422;SDS011;8829;47.932;7.810;2023-04-05T08:43:39;3.97;;;3.47;;
17422;SDS011;8829;47.932;7.810;2023-04-05T08:46:17;5.63;;;4.20;;
17422;SDS011;8829;47.932;7.810;2023-04-05T08:48:47;4.23;;;3.77;;
17422;SDS011;8829;47.932;7.810;2023-04-05T08:51:18;5.57;;;3.80;;
17422;SDS011;8829;47.932;7.810;2023-04-05T08:53:45;4.00;;;3.40;;
17422;SDS011;8829;47.932;7.810;2023-04-05T08:56:12;4.20;;;3.10;;
17422;SDS011;8829;47.932;7.810;2023-04-05T08:58:41;3.47;;;3.17;;
17422;SDS011;8829;47.932;7.810;2023-04-05T09:01:14;3.93;;;3.47;;
17422;SDS011;8829;47.932;7.810;2023-04-05T09:03:42;5.67;;;3.57;;
17422;SDS011;8829;47.932;7.810;2023-04-05T09:06:10;4.10;;;3.60;;
17422;SDS011;8829;47.932;7.810;2023-04-05T09:08:39;5.87;;;3.67;;
17422;SDS011;8829;47.932;7.810;2023-04-05T09:11:06;5.10;;;3.37;;
17422;SDS011;8829;47.932;7.810;2023-04-05T09:13:33;4.60;;;3.53;;
17422;SDS011;8829;47.932;7.810;2023-04-05T09:16:00;4.20;;;3.80;;
17422;SDS011;8829;47.932;7.810;2023-04-05T09:18:27;4.77;;;3.17;;
17422;SDS011;8829;47.932;7.810;2023-04-05T09:21:00;3.97;;;3.30;;
17422;SDS011;8829;47.932;7.810;2023-04-05T09:23:29;3.83;;;3.10;;
17422;SDS011;8829;47.932;7.810;2023-04-05T09:25:57;3.47;;;3.17;;
17422;SDS011;8829;47.932;7.810;2023-04-05T09:28:32;3.67;;;3.37;;
17422;SDS011;8829;47.932;7.810;2023-04-05T09:31:05;3.27;;;2.87;;
17422;SDS011;8829;47.932;7.810;2023-04-05T09:33:32;3.13;;;2.93;;
17422;SDS011;8829;47.932;7.810;2023-04-05T09:35:59;6.10;;;3.40;;
17422;SDS011;8829;47.932;7.810;2023-04-05T09:38:40;4.27;;;3.00;;
17422;SDS011;8829;47.932;7.810;2023-04-05T09:41:09;7.53;;;3.17;;
17422;SDS011;8829;47.932;7.810;2023-04-05T09:43:36;3.93;;;3.63;;
17422;SDS011;8829;47.932;7.810;2023-04-05T09:46:05;7.10;;;3.80;;
17422;SDS011;8829;47.932;7.810;2023-04-05T09:48:44;3.13;;;2.93;;
17422;SDS011;8829;47.932;7.810;2023-04-05T09:51:11;3.50;;;3.20;;
17422;SDS011;8829;47.932;7.810;2023-04-05T09:56:23;3.60;;;3.30;;
17422;SDS011;8829;47.932;7.810;2023-04-05T09:58:49;3.30;;;3.03;;
17422;SDS011;8829;47.932;7.810;2023-04-05T10:01:17;4.43;;;3.40;;
17422;SDS011;8829;47.932;7.810;2023-04-05T10:03:47;3.43;;;3.13;;
17422;SDS011;8829;47.932;7.810;2023-04-05T10:06:14;3.43;;;2.90;;
17422;SDS011;8829;47.932;7.810;2023-04-05T10:08:41;3.47;;;3.17;;
17422;SDS011;8829;47.932;7.810;2023-04-05T10:11:08;3.57;;;3.10;;
17422;SDS011;8829;47.932;7.810;2023-04-05T10:13:38;4.57;;;3.23;;
17422;SDS011;8829;47.932;7.810;2023-04-05T10:16:06;3.30;;;2.90;;
17422;SDS011;8829;47.932;7.810;2023-04-05T10:18:39;4.20;;;2.97;;
17422;SDS011;8829;47.932;7.810;2023-04-05T10:21:11;3.00;;;2.70;;
17422;SDS011;8829;47.932;7.810;2023-04-05T10:23:44;3.20;;;3.00;;
17422;SDS011;8829;47.932;7.810;2023-04-05T10:26:15;5.77;;;3.73;;
17422;SDS011;8829;47.932;7.810;2023-04-05T10:28:50;4.37;;;2.93;;
17422;SDS011;8829;47.932;7.810;2023-04-05T10:31:22;5.43;;;3.53;;
17422;SDS011;8829;47.932;7.810;2023-04-05T10:33:52;3.00;;;2.80;;
17422;SDS011;8829;47.932;7.810;2023-04-05T10:36:29;5.17;;;3.27;;
17422;SDS011;8829;47.932;7.810;2023-04-05T10:39:03;3.20;;;2.97;;
17422;SDS011;8829;47.932;7.810;2023-04-05T10:41:39;3.67;;;2.93;;
17422;SDS011;8829;47.932;7.810;2023-04-05T10:44:13;3.13;;;2.93;;
17422;SDS011;8829;47.932;7.810;2023-04-05T10:46:40;3.50;;;3.20;;
17422;SDS011;8829;47.932;7.810;2023-04-05T10:49:11;4.60;;;3.40;;
17422;SDS011;8829;47.932;7.810;2023-04-05T10:51:45;4.20;;;3.27;;
17422;SDS011;8829;47.932;7.810;2023-04-05T10:54:13;3.57;;;3.20;;
17422;SDS011;8829;47.932;7.810;2023-04-05T10:56:41;3.60;;;3.27;;
17422;SDS011;8829;47.932;7.810;2023-04-05T10:59:09;7.00;;;3.70;;
17422;SDS011;8829;47.932;7.810;2023-04-05T11:01:39;6.97;;;3.23;;
17422;SDS011;8829;47.932;7.810;2023-04-05T11:04:10;3.43;;;2.90;;
17422;SDS011;8829;47.932;7.810;2023-04-05T11:06:37;3.70;;;3.40;;
17422;SDS011;8829;47.932;7.810;2023-04-05T11:09:08;4.23;;;3.10;;
17422;SDS011;8829;47.932;7.810;2023-04-05T11:11:37;3.70;;;3.40;;
17422;SDS011;8829;47.932;7.810;2023-04-05T11:14:17;3.43;;;3.13;;
17422;SDS011;8829;47.932;7.810;2023-04-05T11:16:45;3.63;;;3.20;;
17422;SDS011;8829;47.932;7.810;2023-04-05T11:19:15;4.87;;;3.53;;
17422;SDS011;8829;47.932;7.810;2023-04-05T11:21:41;5.17;;;3.87;;
17422;SDS011;8829;47.932;7.810;2023-04-05T11:24:09;4.67;;;3.30;;
17422;SDS011;8829;47.932;7.810;2023-04-05T11:26:51;3.70;;;3.40;;
17422;SDS011;8829;47.932;7.810;2023-04-05T11:32:14;3.63;;;3.33;;
17422;SDS011;8829;47.932;7.810;2023-04-05T11:34:41;3.27;;;2.90;;
17422;SDS011;8829;47.932;7.810;2023-04-05T11:37:08;3.37;;;3.07;;
17422;SDS011;8829;47.932;7.810;2023-04-05T11:39:35;3.47;;;3.27;;
17422;SDS011;8829;47.932;7.810;2023-04-05T11:42:03;3.60;;;3.30;;
17422;SDS011;8829;47.932;7.810;2023-04-05T11:44:41;5.47;;;3.97;;
17422;SDS011;8829;47.932;7.810;2023-04-05T11:47:10;4.20;;;3.90;;
17422;SDS011;8829;47.932;7.810;2023-04-05T11:49:37;3.83;;;3.53;;
17422;SDS011;8829;47.932;7.810;2023-04-05T11:52:11;3.97;;;3.10;;
17422;SDS011;8829;47.932;7.810;2023-04-05T11:54:39;4.90;;;3.67;;
17422;SDS011;8829;47.932;7.810;2023-04-05T11:57:11;4.03;;;3.63;;
17422;SDS011;8829;47.932;7.810;2023-04-05T11:59:39;5.63;;;3.40;;
17422;SDS011;8829;47.932;7.810;2023-04-05T12:02:05;4.20;;;3.27;;
17422;SDS011;8829;47.932;7.810;2023-04-05T12:04:34;5.87;;;3.50;;
17422;SDS011;8829;47.932;7.810;2023-04-05T12:07:08;4.63;;;3.57;;
17422;SDS011;8829;47.932;7.810;2023-04-05T12:12:35;4.13;;;3.63;;
17422;SDS011;8829;47.932;7.810;2023-04-05T12:15:03;3.23;;;2.93;;
17422;SDS011;8829;47.932;7.810;2023-04-05T12:17:42;4.20;;;3.80;;
17422;SDS011;8829;47.932;7.810;2023-04-05T12:20:13;4.33;;;3.40;;
17422;SDS011;8829;47.932;7.810;2023-04-05T12:22:41;4.17;;;3.40;;
17422;SDS011;8829;47.932;7.810;2023-04-05T12:25:09;3.30;;;3.10;;
17422;SDS011;8829;47.932;7.810;2023-04-05T12:27:37;3.60;;;3.30;;
17422;SDS011;8829;47.932;7.810;2023-04-05T12:30:05;4.00;;;3.60;;
17422;SDS011;8829;47.932;7.810;2023-04-05T12:32:43;7.63;;;4.23;;
17422;SDS011;8829;47.932;7.810;2023-04-05T12:35:12;4.17;;;3.67;;
17422;SDS011;8829;47.932;7.810;2023-04-05T12:37:40;4.47;;;3.87;;
17422;SDS011;8829;47.932;7.810;2023-04-05T12:40:08;4.93;;;3.70;;
17422;SDS011;8829;47.932;7.810;2023-04-05T12:42:36;4.93;;;3.70;;
17422;SDS011;8829;47.932;7.810;2023-04-05T12:45:04;5.00;;;4.23;;
17422;SDS011;8829;47.932;7.810;2023-04-05T12:47:32;4.20;;;3.80;;
17422;SDS011;8829;47.932;7.810;2023-04-05T12:50:12;4.50;;;3.77;;
17422;SDS011;8829;47.932;7.810;2023-04-05T12:52:50;4.47;;;4.07;;
17422;SDS011;8829;47.932;7.810;2023-04-05T12:55:17;4.37;;;3.97;;
17422;SDS011;8829;47.932;7.810;2023-04-05T12:57:47;3.97;;;3.57;;
17422;SDS011;8829;47.932;7.810;2023-04-05T13:00:15;4.10;;;3.70;;
17422;SDS011;8829;47.932;7.810;2023-04-05T13:02:42;6.00;;;3.90;;
17422;SDS011;8829;47.932;7.810;2023-04-05T13:05:16;3.60;;;3.30;;
17422;SDS011;8829;47.932;7.810;2023-04-05T13:07:43;4.27;;;3.87;;
17422;SDS011;8829;47.932;7.810;2023-04-05T13:10:09;4.20;;;3.63;;
17422;SDS011;8829;47.932;7.810;2023-04-05T13:12:36;4.23;;;3.90;;
17422;SDS011;8829;47.932;7.810;2023-04-05T13:15:03;3.80;;;3.37;;
17422;SDS011;8829;47.932;7.810;2023-04-05T13:17:31;3.40;;;3.20;;
17422;SDS011;8829;47.932;7.810;2023-04-05T13:19:57;4.20;;;3.80;;
17422;SDS011;8829;47.932;7.810;2023-04-05T13:22:25;3.40;;;3.10;;
17422;SDS011;8829;47.932;7.810;2023-04-05T13:24:52;3.90;;;3.60;;
17422;SDS011;8829;47.932;7.810;2023-04-05T13:27:19;3.43;;;3.10;;
17422;SDS011;8829;47.932;7.810;2023-04-05T13:29:46;5.23;;;3.60;;
17422;SDS011;8829;47.932;7.810;2023-04-05T13:32:13;4.70;;;3.27;;
17422;SDS011;8829;47.932;7.810;2023-04-05T13:34:40;5.53;;;3.97;;
17422;SDS011;8829;47.932;7.810;2023-04-05T13:37:06;3.83;;;3.50;;
17422;SDS011;8829;47.932;7.810;2023-04-05T13:39:34;4.10;;;3.70;;
17422;SDS011;8829;47.932;7.810;2023-04-05T13:42:01;3.77;;;3.47;;
17422;SDS011;8829;47.932;7.810;2023-04-05T13:44:28;4.60;;;3.50;;
17422;SDS011;8829;47.932;7.810;2023-04-05T13:46:55;3.87;;;3.57;;
17422;SDS011;8829;47.932;7.810;2023-04-05T13:49:22;3.93;;;3.50;;
17422;SDS011;8829;47.932;7.810;2023-04-05T13:51:48;4.47;;;3.60;;
17422;SDS011;8829;47.932;7.810;2023-04-05T13:54:15;3.63;;;3.37;;
17422;SDS011;8829;47.932;7.810;2023-04-05T13:56:44;3.97;;;3.17;;
17422;SDS011;8829;47.932;7.810;2023-04-05T13:59:11;3.50;;;3.20;;
17422;SDS011;8829;47.932;7.810;2023-04-05T14:01:40;3.67;;;3.37;;
17422;SDS011;8829;47.932;7.810;2023-04-05T14:04:07;3.93;;;3.47;;
17422;SDS011;8829;47.932;7.810;2023-04-05T14:06:34;3.97;;;3.57;;
17422;SDS011;8829;47.932;7.810;2023-04-05T14:09:01;4.23;;;3.83;;
17422;SDS011;8829;47.932;7.810;2023-04-05T14:11:27;5.97;;;3.20;;
17422;SDS011;8829;47.932;7.810;2023-04-05T14:13:56;3.17;;;2.97;;
17422;SDS011;8829;47.932;7.810;2023-04-05T14:16:23;5.03;;;3.80;;
17422;SDS011;8829;47.932;7.810;2023-04-05T14:18:50;4.60;;;3.70;;
17422;SDS011;8829;47.932;7.810;2023-04-05T14:21:17;5.33;;;3.77;;
17422;SDS011;8829;47.932;7.810;2023-04-05T14:23:44;4.17;;;3.63;;
17422;SDS011;8829;47.932;7.810;2023-04-05T14:26:11;8.97;;;5.80;;
17422;SDS011;8829;47.932;7.810;2023-04-05T14:28:38;5.43;;;4.20;;
17422;SDS011;8829;47.932;7.810;2023-04-05T14:31:06;3.47;;;3.17;;
17422;SDS011;8829;47.932;7.810;2023-04-05T14:33:33;3.70;;;3.40;;
17422;SDS011;8829;47.932;7.810;2023-04-05T14:35:59;5.03;;;4.53;;
17422;SDS011;8829;47.932;7.810;2023-04-05T14:38:26;4.37;;;4.07;;
17422;SDS011;8829;47.932;7.810;2023-04-05T14:40:53;3.67;;;3.37;;
17422;SDS011;8829;47.932;7.810;2023-04-05T14:43:20;3.73;;;3.43;;
17422;SDS011;8829;47.932;7.810;2023-04-05T14:45:49;4.03;;;3.40;;
17422;SDS011;8829;47.932;7.810;2023-04-05T14:48:17;4.23;;;3.53;;
17422;SDS011;8829;47.932;7.810;2023-04-05T14:50:44;3.53;;;3.20;;
17422;SDS011;8829;47.932;7.810;2023-04-05T14:53:11;5.87;;;4.53;;
17422;SDS011;8829;47.932;7.810;2023-04-05T14:55:37;3.80;;;3.40;;
17422;SDS011;8829;47.932;7.810;2023-04-05T14:58:04;5.93;;;3.57;;
17422;SDS011;8829;47.932;7.810;2023-04-05T15:00:32;4.00;;;3.03;;
17422;SDS011;8829;47.932;7.810;2023-04-05T15:02:59;4.37;;;3.27;;
17422;SDS011;8829;47.932;7.810;2023-04-05T15:05:27;3.80;;;3.37;;
17422;SDS011;8829;47.932;7.810;2023-04-05T15:07:53;3.80;;;3.37;;
17422;SDS011;8829;47.932;7.810;2023-04-05T15:10:20;3.40;;;3.17;;
17422;SDS011;8829;47.932;7.810;2023-04-05T15:12:47;4.03;;;3.57;;
17422;SDS011;8829;47.932;7.810;2023-04-05T15:15:14;4.30;;;3.57;;
17422;SDS011;8829;47.932;7.810;2023-04-05T15:17:41;3.73;;;3.37;;
17422;SDS011;8829;47.932;7.810;2023-04-05T15:20:08;4.10;;;3.73;;